Time;durP1;ratioP1;P1;durP2;ratioP2;P2;SDS_P1;SDS_P2;PMS_P1;PMS_P2;Temp;Humidity;BMP_temperature;BMP_pressure;BME280_temperature;BME280_humidity;BME280_pressure;Samples;Min_cycle;Max_cycle;Signal;HPM_P1;HPM_P2
2022/07/23 00:00:17;;;;;;;9.67;6.93;;;;;;;16.87;78.18;101049.13;5011094;28;20213;-85
2022/07/23 00:02:44;;;;;;;7.53;6.50;;;;;;;16.88;78.24;101055.34;5011966;28;20220;-84
2022/07/23 00:05:11;;;;;;;8.20;6.30;;;;;;;16.89;78.42;101051.69;5028945;28;20225;-84
2022/07/23 00:07:38;;;;;;;7.83;5.97;;;;;;;16.85;78.12;101053.78;5031534;28;20679;-85
2022/07/23 00:10:05;;;;;;;10.03;6.40;;;;;;;16.82;78.27;101045.13;5031213;28;20241;-85
2022/07/23 00:12:33;;;;;;;9.13;6.90;;;;;;;16.78;78.28;101043.66;5031373;28;20578;-85
2022/07/23 00:15:00;;;;;;;7.27;6.60;;;;;;;16.74;78.66;101051.13;5019644;28;20238;-83
2022/07/23 00:17:27;;;;;;;7.27;6.27;;;;;;;16.73;78.91;101048.56;5011449;28;20211;-83
2022/07/23 00:19:54;;;;;;;9.40;7.00;;;;;;;16.73;79.14;101044.03;5011229;28;20208;-84
2022/07/23 00:22:20;;;;;;;8.67;6.90;;;;;;;16.74;79.24;101045.75;5011074;28;20224;-84
2022/07/23 00:24:47;;;;;;;9.57;6.70;;;;;;;16.72;79.50;101044.16;5011112;28;20233;-84
2022/07/23 00:27:13;;;;;;;7.63;6.30;;;;;;;16.69;79.19;101041.72;5010930;28;20208;-84
2022/07/23 00:29:41;;;;;;;7.90;6.67;;;;;;;16.66;79.23;101038.31;5011402;28;20231;-83
2022/07/23 00:32:08;;;;;;;8.10;6.07;;;;;;;16.66;79.47;101045.53;5012080;28;20567;-84
2022/07/23 00:34:34;;;;;;;8.63;6.27;;;;;;;16.64;79.35;101059.13;5011017;28;20213;-86
2022/07/23 00:37:01;;;;;;;9.43;6.70;;;;;;;16.64;79.40;101056.44;5011041;28;20212;-84
2022/07/23 00:39:27;;;;;;;7.80;6.50;;;;;;;16.64;79.42;101052.88;5013673;28;20200;-84
2022/07/23 00:41:54;;;;;;;8.20;6.60;;;;;;;16.64;79.62;101045.69;5031155;28;20219;-83
2022/07/23 00:44:22;;;;;;;10.57;6.30;;;;;;;16.60;79.41;101038.78;5030794;28;20216;-85
2022/07/23 00:46:53;;;;;;;6.43;5.67;;;;;;;16.58;79.53;101046.13;5034020;28;20210;-84
2022/07/23 00:49:20;;;;;;;7.13;6.33;;;;;;;16.58;79.78;101053.34;5034443;28;20201;-84
2022/07/23 00:51:48;;;;;;;7.30;6.57;;;;;;;16.58;79.91;101056.03;5034804;28;20195;-84
2022/07/23 00:54:15;;;;;;;6.87;6.00;;;;;;;16.57;80.02;101055.19;5034430;28;20242;-84
2022/07/23 00:56:43;;;;;;;8.80;6.77;;;;;;;16.57;80.17;101054.31;5034781;28;20227;-84
2022/07/23 00:59:10;;;;;;;7.93;6.47;;;;;;;16.56;80.20;101053.47;5020332;28;20702;-85
2022/07/23 01:01:37;;;;;;;8.93;6.57;;;;;;;16.57;80.54;101048.94;5013997;28;20213;-84
2022/07/23 01:04:05;;;;;;;7.87;6.53;;;;;;;16.56;80.24;101047.22;5014954;28;20295;-85
2022/07/23 01:06:35;;;;;;;8.30;6.20;;;;;;;16.54;79.74;101044.66;5014480;28;20229;-83
2022/07/23 01:09:02;;;;;;;7.80;7.03;;;;;;;16.49;79.68;101054.94;5014072;28;20216;-85
2022/07/23 01:11:28;;;;;;;7.03;6.13;;;;;;;16.44;79.90;101054.47;5017377;28;20232;-84
2022/07/23 01:13:55;;;;;;;7.83;7.07;;;;;;;16.39;79.95;101042.38;5022883;28;20208;-84
2022/07/23 01:16:21;;;;;;;8.67;7.03;;;;;;;16.35;80.15;101027.47;5026972;28;20232;-85
2022/07/23 01:18:48;;;;;;;9.50;7.37;;;;;;;16.34;80.50;101021.25;5023004;28;20305;-83
2022/07/23 01:21:19;;;;;;;9.77;6.83;;;;;;;16.32;80.33;101023.19;5017259;28;20699;-85
2022/07/23 01:23:47;;;;;;;7.30;6.13;;;;;;;16.30;80.44;101027.88;5014630;28;20204;-84
2022/07/23 01:26:15;;;;;;;10.03;7.50;;;;;;;16.27;80.61;101025.44;5014072;28;20734;-86
2022/07/23 01:28:42;;;;;;;6.73;6.03;;;;;;;16.26;81.02;101012.97;5030401;28;20238;-85
2022/07/23 01:31:08;;;;;;;8.63;7.17;;;;;;;16.26;80.90;101007.59;5029144;28;20228;-84
2022/07/23 01:33:35;;;;;;;7.97;7.13;;;;;;;16.27;80.92;101002.09;5025466;28;20418;-85
2022/07/23 01:36:01;;;;;;;9.17;6.03;;;;;;;16.27;80.56;101001.25;5021739;28;20228;-84
2022/07/23 01:38:28;;;;;;;8.47;6.80;;;;;;;16.26;80.45;101004.91;5031346;28;20211;-84
2022/07/23 01:40:56;;;;;;;7.27;6.27;;;;;;;16.24;80.30;100999.66;5027258;28;20246;-84
2022/07/23 01:43:22;;;;;;;7.00;6.30;;;;;;;16.22;80.49;101003.44;5014992;28;20208;-84
2022/07/23 01:45:49;;;;;;;6.87;6.20;;;;;;;16.22;80.29;101006.13;5015450;28;20215;-84
2022/07/23 01:48:16;;;;;;;7.83;5.93;;;;;;;16.21;80.47;101016.03;5021712;28;20223;-84
2022/07/23 01:50:42;;;;;;;9.03;6.37;;;;;;;16.20;80.19;101002.72;5013206;28;20674;-84
2022/07/23 01:53:09;;;;;;;7.43;6.50;;;;;;;16.18;80.23;100986.72;5019581;28;20200;-84
2022/07/23 01:55:35;;;;;;;7.97;7.10;;;;;;;16.14;80.17;100995.13;5011055;28;20228;-86
2022/07/23 01:58:03;;;;;;;8.87;7.40;;;;;;;16.11;80.34;101003.47;5031456;28;20581;-85
2022/07/23 02:00:30;;;;;;;8.57;7.67;;;;;;;16.08;80.46;100996.50;5032174;28;20586;-84
2022/07/23 02:02:58;;;;;;;8.70;7.70;;;;;;;16.06;80.17;100997.59;5032239;28;20208;-84
2022/07/23 02:05:25;;;;;;;8.47;7.67;;;;;;;16.05;80.35;101003.94;5022339;28;20227;-84
2022/07/23 02:07:52;;;;;;;11.57;7.93;;;;;;;16.02;80.63;101009.56;5032167;28;20197;-84
2022/07/23 02:10:18;;;;;;;11.83;7.60;;;;;;;16.00;80.67;101011.50;5015204;28;20259;-82
2022/07/23 02:12:45;;;;;;;9.87;8.20;;;;;;;15.97;81.14;101016.16;5011878;28;20202;-84
2022/07/23 02:15:13;;;;;;;10.30;9.00;;;;;;;15.96;81.17;101010.91;5021761;28;20233;-84
2022/07/23 02:17:40;;;;;;;11.87;8.73;;;;;;;15.94;81.49;101016.41;5017530;28;20209;-84
2022/07/23 02:20:10;;;;;;;11.17;8.30;;;;;;;15.93;81.85;100998.59;5012255;28;20209;-84
2022/07/23 02:22:37;;;;;;;9.83;8.73;;;;;;;15.91;82.19;100997.88;5011887;28;20215;-84
2022/07/23 02:25:04;;;;;;;10.60;8.10;;;;;;;15.91;82.54;101005.94;5020935;28;20230;-84
2022/07/23 02:27:30;;;;;;;11.40;9.43;;;;;;;15.91;82.92;101011.28;5021709;28;20287;-84
2022/07/23 02:29:57;;;;;;;9.50;8.50;;;;;;;15.92;83.19;101014.84;5024713;28;20238;-83
2022/07/23 02:32:25;;;;;;;11.57;8.97;;;;;;;15.92;83.60;101010.31;5004581;28;20218;-84
2022/07/23 02:34:52;;;;;;;12.13;9.97;;;;;;;15.92;83.87;101009.47;5025732;28;20327;-84
2022/07/23 02:37:19;;;;;;;13.43;9.87;;;;;;;15.91;84.14;101013.97;5025258;28;20210;-83
2022/07/23 02:39:45;;;;;;;10.43;9.27;;;;;;;15.91;84.32;101013.13;5020143;28;20204;-84
2022/07/23 02:42:12;;;;;;;13.03;8.70;;;;;;;15.90;84.23;101024.84;5014382;28;20207;-81
2022/07/23 02:44:38;;;;;;;11.90;8.87;;;;;;;15.89;84.53;101026.69;5023191;28;20203;-84
2022/07/23 02:47:05;;;;;;;10.17;9.07;;;;;;;15.89;84.58;101036.56;5018950;28;20211;-83
2022/07/23 02:49:33;;;;;;;12.30;8.83;;;;;;;15.87;84.78;101020.56;5020670;28;20996;-84
2022/07/23 02:52:00;;;;;;;9.57;8.30;;;;;;;15.85;84.15;101013.59;5030483;28;20219;-85
2022/07/23 02:54:26;;;;;;;11.60;7.67;;;;;;;15.84;84.46;101019.94;5018876;28;20200;-83
2022/07/23 02:56:53;;;;;;;11.27;8.70;;;;;;;15.82;84.63;101011.16;5013248;28;20230;-84
2022/07/23 02:59:19;;;;;;;8.93;7.93;;;;;;;15.82;84.03;101013.84;5011734;28;20243;-83
2022/07/23 03:01:46;;;;;;;9.87;8.37;;;;;;;15.81;84.01;101009.44;5027074;28;20207;-83
2022/07/23 03:04:13;;;;;;;9.40;8.10;;;;;;;15.81;83.84;101012.13;5020356;28;20268;-85
2022/07/23 03:06:41;;;;;;;8.90;8.00;;;;;;;15.81;84.17;101006.75;5010992;28;20235;-84
2022/07/23 03:09:07;;;;;;;13.37;8.20;;;;;;;15.80;83.92;101005.06;5026157;28;20207;-84
2022/07/23 03:11:34;;;;;;;9.93;8.97;;;;;;;15.80;83.95;101005.06;5030844;28;20233;-83
2022/07/23 03:14:00;;;;;;;9.83;8.87;;;;;;;15.80;83.81;101011.28;5025495;28;20205;-84
2022/07/23 03:16:27;;;;;;;8.93;8.03;;;;;;;15.81;84.02;101013.00;5020405;28;20230;-85
2022/07/23 03:18:53;;;;;;;9.50;8.10;;;;;;;15.81;84.11;101007.63;5017211;28;20203;-84
2022/07/23 03:21:20;;;;;;;8.17;7.40;;;;;;;15.84;83.93;101007.38;5022352;28;20207;-84
2022/07/23 03:23:48;;;;;;;8.43;7.27;;;;;;;15.86;84.18;101004.56;5016109;28;20211;-83
2022/07/23 03:26:14;;;;;;;7.97;7.17;;;;;;;15.88;84.14;100995.41;5014418;28;20227;-84
2022/07/23 03:28:41;;;;;;;9.13;7.40;;;;;;;15.91;84.03;100997.88;5022956;28;20684;-83
2022/07/23 03:31:07;;;;;;;8.30;7.03;;;;;;;15.94;83.76;101000.28;5022715;28;20238;-84
2022/07/23 03:33:34;;;;;;;8.87;6.77;;;;;;;15.96;83.50;100994.78;5015028;28;20204;-84
2022/07/23 03:36:00;;;;;;;8.33;7.47;;;;;;;15.97;83.24;100989.28;5006908;28;20236;-84
2022/07/23 03:38:27;;;;;;;8.10;7.03;;;;;;;15.98;83.54;100977.56;5014806;28;20205;-85
2022/07/23 03:40:55;;;;;;;8.07;6.97;;;;;;;15.98;83.05;100974.88;5017090;28;20198;-82
2022/07/23 03:43:24;;;;;;;10.33;7.37;;;;;;;15.98;83.43;100990.16;5025795;28;20219;-84
2022/07/23 03:45:50;;;;;;;8.20;6.57;;;;;;;15.98;83.49;100987.47;5017618;28;20375;-83
2022/07/23 03:48:17;;;;;;;8.50;7.60;;;;;;;16.00;83.48;100976.59;5021078;28;20219;-83
2022/07/23 03:50:43;;;;;;;9.23;7.50;;;;;;;16.01;83.41;100979.16;5026314;28;20225;-83
2022/07/23 03:53:10;;;;;;;8.03;7.20;;;;;;;16.02;83.33;100967.44;5028781;28;20571;-83
2022/07/23 03:55:36;;;;;;;8.07;7.27;;;;;;;16.03;83.34;100979.91;5024500;28;20228;-83
2022/07/23 03:58:04;;;;;;;8.83;7.87;;;;;;;16.06;83.60;100989.53;5025190;28;20209;-83
2022/07/23 04:00:31;;;;;;;8.10;7.30;;;;;;;16.06;83.66;100994.91;5022156;28;20602;-83
2022/07/23 04:02:57;;;;;;;8.83;6.90;;;;;;;16.08;83.91;100998.34;5018362;28;20208;-84
2022/07/23 04:05:24;;;;;;;12.20;7.93;;;;;;;16.09;84.01;100998.22;5032047;28;20239;-83
2022/07/23 04:07:50;;;;;;;9.40;7.10;;;;;;;16.11;84.24;100993.56;5025469;28;20201;-83
2022/07/23 04:10:17;;;;;;;9.87;7.13;;;;;;;16.11;84.10;100982.81;5028258;28;20670;-83
2022/07/23 04:12:43;;;;;;;7.50;6.77;;;;;;;16.12;83.84;100989.06;5025127;28;20200;-85
2022/07/23 04:15:11;;;;;;;8.70;7.40;;;;;;;16.11;83.76;100977.44;5030795;28;20223;-83
2022/07/23 04:17:38;;;;;;;8.73;7.60;;;;;;;16.14;83.63;100976.31;5012747;28;20293;-83
2022/07/23 04:20:05;;;;;;;8.63;7.20;;;;;;;16.12;83.56;100968.38;5018328;28;20204;-85
2022/07/23 04:22:32;;;;;;;10.23;7.77;;;;;;;16.10;83.88;100986.50;5016436;28;20214;-85
2022/07/23 04:24:58;;;;;;;9.33;7.73;;;;;;;16.09;84.02;100994.66;5030949;28;20267;-83
2022/07/23 04:27:25;;;;;;;8.20;7.40;;;;;;;16.09;84.14;100992.00;5020597;28;20216;-85
2022/07/23 04:29:52;;;;;;;10.43;7.87;;;;;;;16.10;84.60;100977.56;5030773;28;20220;-86
2022/07/23 04:32:19;;;;;;;12.13;8.03;;;;;;;16.11;84.82;100968.53;5036431;28;20227;-84
2022/07/23 04:34:46;;;;;;;9.00;7.70;;;;;;;16.10;84.68;100975.75;5036395;28;20230;-84
2022/07/23 04:37:12;;;;;;;11.87;7.10;;;;;;;16.08;85.03;100982.22;5020881;28;20867;-83
2022/07/23 04:39:39;;;;;;;9.10;8.30;;;;;;;16.07;85.35;100993.94;5016462;28;20213;-84
2022/07/23 04:42:05;;;;;;;9.43;8.47;;;;;;;16.07;85.21;101008.22;5031624;28;20282;-83
2022/07/23 04:44:32;;;;;;;11.93;8.53;;;;;;;16.07;85.57;101002.00;5029539;28;20203;-86
2022/07/23 04:46:59;;;;;;;11.40;8.43;;;;;;;16.06;85.52;101009.22;5041616;28;20208;-85
2022/07/23 04:49:26;;;;;;;8.97;7.57;;;;;;;16.06;85.44;101011.88;5040405;28;20221;-85
2022/07/23 04:51:53;;;;;;;12.20;8.43;;;;;;;16.07;85.46;101004.69;5020345;28;20224;-84
2022/07/23 04:54:20;;;;;;;10.27;8.37;;;;;;;16.08;85.49;101003.72;5026432;28;20201;-83
2022/07/23 04:56:46;;;;;;;8.93;7.67;;;;;;;16.09;85.41;101013.47;5019437;28;20309;-85
2022/07/23 04:59:12;;;;;;;13.93;9.10;;;;;;;16.10;85.75;101017.88;5028032;28;20208;-85
2022/07/23 05:01:39;;;;;;;9.53;8.43;;;;;;;16.12;85.62;101018.63;5040761;28;20212;-85
2022/07/23 05:04:07;;;;;;;10.40;8.87;;;;;;;16.11;85.56;101020.44;5040026;28;20206;-84
2022/07/23 05:06:34;;;;;;;11.03;8.33;;;;;;;16.12;85.64;101018.63;5028325;28;20292;-84
2022/07/23 05:09:01;;;;;;;10.87;8.57;;;;;;;16.15;85.55;101021.03;5040342;28;20204;-84
2022/07/23 05:11:27;;;;;;;10.30;8.30;;;;;;;16.15;85.74;101015.66;5041712;28;20367;-84
2022/07/23 05:13:54;;;;;;;9.03;7.90;;;;;;;16.16;85.61;101009.31;5025575;28;20204;-84
2022/07/23 05:16:21;;;;;;;9.63;8.63;;;;;;;16.18;85.55;101020.78;5027454;28;20247;-84
2022/07/23 05:18:47;;;;;;;9.90;8.67;;;;;;;16.18;85.58;101010.03;5034777;28;20204;-84
2022/07/23 05:21:14;;;;;;;10.90;8.30;;;;;;;16.18;85.51;101015.41;5035255;28;20208;-84
2022/07/23 05:23:42;;;;;;;10.80;9.07;;;;;;;16.18;85.10;101010.03;5019803;28;20286;-83
2022/07/23 05:26:08;;;;;;;9.57;8.57;;;;;;;16.18;85.33;101012.72;5029669;28;20229;-85
2022/07/23 05:28:35;;;;;;;12.57;8.80;;;;;;;16.18;85.46;101012.72;5027373;28;20212;-84
2022/07/23 05:31:01;;;;;;;11.13;8.33;;;;;;;16.19;85.75;101009.91;5024970;28;20595;-85
2022/07/23 05:33:28;;;;;;;11.10;9.10;;;;;;;16.23;85.62;101013.22;5033209;28;20219;-85
2022/07/23 05:35:54;;;;;;;11.03;8.70;;;;;;;16.26;85.78;101013.81;5020813;28;20227;-85
2022/07/23 05:38:21;;;;;;;9.90;9.00;;;;;;;16.30;85.55;101012.56;5032568;28;20403;-85
2022/07/23 05:40:49;;;;;;;12.80;8.37;;;;;;;16.35;85.55;101016.72;5023272;28;20699;-83
2022/07/23 05:43:15;;;;;;;12.63;9.53;;;;;;;16.41;85.64;101019.78;5031490;28;20287;-85
2022/07/23 05:45:42;;;;;;;9.50;8.37;;;;;;;16.45;85.39;101021.25;5034912;28;20225;-85
2022/07/23 05:48:08;;;;;;;11.17;8.67;;;;;;;16.50;85.41;101023.53;5015809;28;20211;-83
2022/07/23 05:50:35;;;;;;;10.87;8.70;;;;;;;16.55;85.10;101022.19;5024965;28;20203;-84
2022/07/23 05:53:01;;;;;;;11.07;9.20;;;;;;;16.58;84.56;101024.63;5030258;28;20710;-85
2022/07/23 05:55:31;;;;;;;9.40;8.50;;;;;;;16.60;84.36;101017.28;5022049;28;20225;-83
2022/07/23 05:58:00;;;;;;;10.13;7.90;;;;;;;16.64;83.87;101020.63;5020599;28;20337;-84
2022/07/23 06:00:27;;;;;;;12.57;8.97;;;;;;;16.63;83.63;101019.75;5017049;28;20650;-83
2022/07/23 06:02:54;;;;;;;9.20;7.93;;;;;;;16.67;83.62;101029.25;5014292;28;20754;-84
2022/07/23 06:05:20;;;;;;;11.47;7.80;;;;;;;16.76;83.42;101021.41;5018206;28;20225;-82
2022/07/23 06:07:47;;;;;;;10.23;7.60;;;;;;;16.84;83.17;101024.34;5019013;28;20211;-83
2022/07/23 06:10:14;;;;;;;12.33;8.83;;;;;;;16.94;83.32;101025.25;5019864;28;20217;-83
2022/07/23 06:12:40;;;;;;;9.30;7.73;;;;;;;17.04;83.43;101026.19;5029849;28;20233;-84
2022/07/23 06:15:10;;;;;;;9.97;7.80;;;;;;;17.16;83.36;101027.84;5017127;28;20223;-83
2022/07/23 06:17:38;;;;;;;8.37;7.07;;;;;;;17.29;83.24;101031.19;5017214;28;20207;-83
2022/07/23 06:20:06;;;;;;;7.30;6.60;;;;;;;17.41;82.40;101031.13;5028779;28;20214;-84
2022/07/23 06:22:32;;;;;;;6.83;5.67;;;;;;;17.47;80.93;101033.31;5019929;28;20213;-83
2022/07/23 06:24:59;;;;;;;7.47;6.10;;;;;;;17.51;79.47;101032.06;5037194;28;20322;-84
2022/07/23 06:27:25;;;;;;;6.10;5.47;;;;;;;17.57;78.72;101028.81;5020757;28;20212;-85
2022/07/23 06:29:52;;;;;;;6.97;5.20;;;;;;;17.66;77.90;101025.38;5017155;28;20212;-85
2022/07/23 06:32:20;;;;;;;6.03;5.03;;;;;;;17.76;76.90;101026.25;5016285;28;20231;-85
2022/07/23 06:34:46;;;;;;;5.33;4.43;;;;;;;17.84;75.95;101026.47;5028428;28;20221;-84
2022/07/23 06:37:13;;;;;;;5.43;3.93;;;;;;;17.92;74.80;101033.84;5019740;28;20230;-83
2022/07/23 06:39:39;;;;;;;7.40;4.13;;;;;;;17.98;73.94;101027.94;5015603;28;20220;-83
2022/07/23 06:42:06;;;;;;;6.20;4.50;;;;;;;18.06;73.12;101035.34;5016537;28;20207;-85
2022/07/23 06:44:33;;;;;;;6.50;4.47;;;;;;;18.11;72.27;101033.06;5023848;28;20299;-84
2022/07/23 06:46:59;;;;;;;5.17;4.30;;;;;;;18.20;72.08;101040.38;5021339;28;20219;-84
2022/07/23 06:49:27;;;;;;;5.87;4.53;;;;;;;18.30;71.61;101036.69;5032186;28;20207;-85
2022/07/23 06:51:53;;;;;;;8.53;4.70;;;;;;;18.38;70.63;101034.19;5033804;28;20235;-84
2022/07/23 06:54:20;;;;;;;4.60;3.83;;;;;;;18.46;70.03;101038.84;5035994;28;20302;-83
2022/07/23 06:56:47;;;;;;;6.13;4.47;;;;;;;18.54;69.25;101046.28;5029718;28;20706;-82
2022/07/23 06:59:13;;;;;;;6.40;4.60;;;;;;;18.63;68.77;101046.31;5015131;28;20212;-83
2022/07/23 07:01:40;;;;;;;7.63;4.67;;;;;;;18.76;68.48;101050.59;5016600;28;20294;-85
2022/07/23 07:04:06;;;;;;;6.83;4.20;;;;;;;18.87;68.08;101042.38;5015299;28;20296;-85
2022/07/23 07:06:34;;;;;;;5.23;4.63;;;;;;;18.97;67.72;101044.09;5026094;28;20233;-85
2022/07/23 07:09:01;;;;;;;4.90;4.00;;;;;;;19.12;67.38;101039.13;5034193;28;20696;-84
2022/07/23 07:11:27;;;;;;;5.53;3.90;;;;;;;19.23;66.60;101038.09;5021695;28;20236;-85
2022/07/23 07:13:54;;;;;;;6.57;4.20;;;;;;;19.32;65.51;101048.06;5033423;28;20199;-82
2022/07/23 07:16:20;;;;;;;7.50;4.37;;;;;;;19.37;64.82;101045.75;5022464;28;20227;-84
2022/07/23 07:18:47;;;;;;;6.97;3.97;;;;;;;19.44;64.25;101049.59;5029813;28;20657;-84
2022/07/23 07:21:13;;;;;;;3.70;3.30;;;;;;;19.52;63.94;101041.69;5031971;28;20224;-84
2022/07/23 07:23:42;;;;;;;5.50;3.90;;;;;;;19.63;63.29;101054.16;5025364;28;20222;-84
2022/07/23 07:26:08;;;;;;;5.33;4.00;;;;;;;19.72;63.07;101053.25;5011699;28;20837;-85
2022/07/23 07:28:35;;;;;;;6.50;4.20;;;;;;;19.84;63.23;101049.41;5016439;28;20218;-83
2022/07/23 07:31:01;;;;;;;4.40;3.93;;;;;;;19.95;62.48;101054.63;5012133;28;20204;-84
2022/07/23 07:33:28;;;;;;;4.80;3.60;;;;;;;20.07;62.05;101056.13;5013705;28;20218;-85
2022/07/23 07:35:55;;;;;;;5.70;3.73;;;;;;;20.17;61.32;101060.66;5011529;28;20824;-84
2022/07/23 07:38:21;;;;;;;6.03;4.07;;;;;;;20.25;60.99;101058.91;5023842;28;20209;-84
2022/07/23 07:40:49;;;;;;;4.30;3.40;;;;;;;20.33;60.44;101064.44;5026159;28;20205;-84
2022/07/23 07:43:16;;;;;;;5.20;3.63;;;;;;;20.35;59.44;101058.88;5023913;28;20205;-84
2022/07/23 07:45:42;;;;;;;5.60;3.30;;;;;;;20.37;59.25;101060.47;5019997;28;20624;-84
2022/07/23 07:48:09;;;;;;;7.37;3.57;;;;;;;20.46;58.80;101055.97;5015979;28;20214;-84
2022/07/23 07:50:35;;;;;;;6.33;2.83;;;;;;;20.57;58.19;101063.91;5017708;28;20208;-85
2022/07/23 07:53:02;;;;;;;5.90;2.90;;;;;;;20.61;57.64;101081.53;5031078;28;20231;-86
2022/07/23 07:55:28;;;;;;;4.93;3.10;;;;;;;20.58;57.01;101076.44;5016180;28;20222;-84
2022/07/23 07:57:56;;;;;;;4.47;3.03;;;;;;;20.64;57.28;101080.38;5011058;28;20225;-85
2022/07/23 08:00:23;;;;;;;4.22;3.20;;;;;;;20.73;57.17;101076.78;5011829;28;20205;-83
2022/07/23 08:02:51;;;;;;;2.73;2.30;;;;;;;20.85;56.79;101075.53;5006211;28;20220;-83
2022/07/23 08:05:20;;;;;;;4.18;2.35;;;;;;;20.96;56.15;101072.59;5021999;28;20230;-83
2022/07/23 08:07:46;;;;;;;5.57;3.13;;;;;;;21.08;55.62;101084.06;5011317;28;20687;-83
2022/07/23 08:10:13;;;;;;;4.82;3.53;;;;;;;21.17;54.73;101071.44;5017956;28;20221;-84
2022/07/23 08:12:45;;;;;;;3.03;2.72;;;;;;;21.23;54.28;101082.56;5009986;28;20227;-83
2022/07/23 08:15:14;;;;;;;4.25;2.72;;;;;;;21.22;53.47;101082.69;5016935;28;20779;-82
2022/07/23 08:17:41;;;;;;;5.10;2.35;;;;;;;21.25;53.50;101080.53;4998515;28;20202;-84
2022/07/23 08:20:10;;;;;;;3.42;3.10;;;;;;;21.35;54.21;101080.44;5011962;28;20206;-84
2022/07/23 08:22:48;;;;;;;3.05;2.70;;;;;;;21.42;53.76;101079.66;5012382;28;20305;-84
2022/07/23 08:25:15;;;;;;;4.50;2.80;;;;;;;21.54;53.81;101084.84;5013221;28;20225;-83
2022/07/23 08:27:41;;;;;;;4.38;2.67;;;;;;;21.58;52.55;101080.81;5014065;28;20211;-84
2022/07/23 08:30:09;;;;;;;4.22;3.70;;;;;;;21.51;52.47;101080.56;5011655;28;20445;-84
2022/07/23 08:32:50;;;;;;;4.82;3.90;;;;;;;21.51;53.13;101085.13;5018390;28;20290;-83
2022/07/23 08:35:17;;;;;;;5.10;2.95;;;;;;;21.52;53.03;101084.13;5010534;28;20239;-83
2022/07/23 08:37:43;;;;;;;3.40;3.10;;;;;;;21.60;53.07;101092.34;5019276;28;20208;-84
2022/07/23 08:40:12;;;;;;;5.80;2.78;;;;;;;21.69;53.21;101088.66;5011198;28;20290;-84
2022/07/23 08:42:38;;;;;;;3.08;2.70;;;;;;;21.75;52.33;101088.03;5015107;28;20198;-83
2022/07/23 08:45:08;;;;;;;3.20;2.50;;;;;;;21.74;51.36;101094.47;5014524;28;20234;-83
2022/07/23 08:47:36;;;;;;;2.97;2.28;;;;;;;21.75;51.36;101102.44;5010746;28;20682;-83
2022/07/23 08:50:05;;;;;;;3.25;2.33;;;;;;;21.84;51.30;101100.66;5007932;28;20233;-83
2022/07/23 08:52:32;;;;;;;3.25;2.22;;;;;;;21.93;50.77;101096.97;5010983;28;20237;-83
2022/07/23 08:54:59;;;;;;;3.10;2.13;;;;;;;22.01;50.63;101096.22;5010820;28;20333;-83
2022/07/23 08:57:25;;;;;;;3.47;2.10;;;;;;;21.98;50.41;101097.38;5010285;28;20225;-83
2022/07/23 08:59:52;;;;;;;4.05;2.38;;;;;;;21.99;50.52;101101.78;5010836;28;20596;-83
2022/07/23 09:02:19;;;;;;;2.95;2.63;;;;;;;22.06;50.59;101097.44;5015171;28;20209;-84
2022/07/23 09:04:45;;;;;;;4.20;1.98;;;;;;;22.15;50.36;101091.06;5019757;28;20232;-83
2022/07/23 09:07:13;;;;;;;2.00;1.73;;;;;;;22.30;50.47;101090.44;5020339;28;20205;-84
2022/07/23 09:09:40;;;;;;;3.58;1.90;;;;;;;22.49;49.92;101090.19;5017232;28;20212;-84
2022/07/23 09:12:09;;;;;;;2.10;1.75;;;;;;;22.65;49.11;101087.53;5018686;28;20231;-84
2022/07/23 09:14:40;;;;;;;3.78;1.73;;;;;;;22.77;48.60;101096.25;5019548;28;20212;-84
2022/07/23 09:17:11;;;;;;;5.60;2.63;;;;;;;22.81;47.59;101090.31;5024097;28;20213;-84
2022/07/23 09:19:38;;;;;;;3.03;1.88;;;;;;;22.82;47.41;101099.31;5016170;28;20579;-82
2022/07/23 09:22:27;;;;;;;3.72;2.10;;;;;;;22.91;47.86;101092.06;5016463;28;20309;-83
2022/07/23 09:25:08;;;;;;;3.10;1.80;;;;;;;22.99;47.52;101089.34;5016388;28;20631;-83
2022/07/23 09:27:52;;;;;;;2.13;1.92;;;;;;;23.05;47.39;101099.56;5021482;28;20198;-84
2022/07/23 09:30:19;;;;;;;3.15;2.13;;;;;;;23.04;47.04;101100.56;5015447;28;20207;-84
2022/07/23 09:33:03;;;;;;;3.22;1.95;;;;;;;23.07;46.88;101108.38;5015120;28;20226;-85
2022/07/23 09:35:44;;;;;;;2.30;2.05;;;;;;;23.17;47.06;101109.06;5015441;28;20237;-86
2022/07/23 09:38:12;;;;;;;3.33;1.88;;;;;;;23.29;47.03;101096.03;5015109;28;20201;-84
2022/07/23 09:40:39;;;;;;;3.67;2.10;;;;;;;23.45;46.76;101098.75;5015102;28;20245;-85
2022/07/23 09:43:06;;;;;;;2.88;1.92;;;;;;;23.51;45.68;101085.34;5014569;28;20202;-85
2022/07/23 09:45:32;;;;;;;1.70;1.60;;;;;;;23.51;44.98;101096.22;5015682;28;20337;-85
2022/07/23 09:48:11;;;;;;;3.00;1.83;;;;;;;23.53;44.97;101093.31;5014941;28;20683;-86
2022/07/23 09:50:41;;;;;;;2.58;1.80;;;;;;;23.58;45.33;101092.81;5014785;28;20194;-85
2022/07/23 09:53:08;;;;;;;1.85;1.67;;;;;;;23.66;45.10;101087.34;5015115;28;20265;-86
2022/07/23 09:55:38;;;;;;;2.97;2.00;;;;;;;23.74;45.75;101090.09;5015290;28;20305;-85
2022/07/23 09:58:06;;;;;;;2.78;1.88;;;;;;;23.84;45.14;101078.00;5014821;28;20250;-85
2022/07/23 10:00:34;;;;;;;3.90;1.65;;;;;;;23.89;44.85;101077.47;5014809;28;20211;-84
2022/07/23 10:03:01;;;;;;;3.97;1.80;;;;;;;23.86;44.13;101069.66;5014341;28;20249;-84
2022/07/23 10:05:29;;;;;;;2.67;2.00;;;;;;;23.77;44.33;101089.75;5014775;28;20230;-85
2022/07/23 10:07:56;;;;;;;2.30;1.70;;;;;;;23.79;45.19;101088.56;5014563;28;20590;-87
2022/07/23 10:10:27;;;;;;;2.55;1.90;;;;;;;23.91;45.59;101078.16;5014688;28;20211;-84
2022/07/23 10:13:11;;;;;;;4.57;1.90;;;;;;;24.04;44.98;101083.03;5014598;28;20234;-85
2022/07/23 10:15:42;;;;;;;4.07;2.30;;;;;;;24.14;44.70;101086.44;5014447;28;20226;-85
2022/07/23 10:18:11;;;;;;;2.78;1.98;;;;;;;24.21;43.45;101087.41;5014021;28;20198;-85
2022/07/23 10:20:38;;;;;;;4.38;2.00;;;;;;;24.16;42.98;101084.41;5014170;28;20290;-85
2022/07/23 10:23:15;;;;;;;1.80;1.58;;;;;;;24.10;43.37;101076.91;5014539;28;20643;-85
2022/07/23 10:25:48;;;;;;;2.85;2.00;;;;;;;24.14;43.71;101081.00;5015416;28;20237;-86
2022/07/23 10:28:42;;;;;;;2.95;1.95;;;;;;;24.21;43.39;101082.81;5015549;28;20273;-85
2022/07/23 10:31:18;;;;;;;5.82;2.15;;;;;;;24.33;43.83;101086.06;5015010;28;20270;-85
2022/07/23 10:34:02;;;;;;;2.13;1.70;;;;;;;24.45;43.11;101079.22;5015336;28;20304;-85
2022/07/23 10:36:41;;;;;;;2.45;1.60;;;;;;;24.45;42.52;101087.38;5015574;28;20231;-85
2022/07/23 10:39:18;;;;;;;2.17;1.90;;;;;;;24.46;42.57;101085.50;5014637;28;20212;-85
2022/07/23 10:41:45;;;;;;;2.88;1.50;;;;;;;24.51;42.37;101074.94;5014982;28;20568;-84
2022/07/23 10:44:15;;;;;;;2.60;1.70;;;;;;;24.57;42.43;101085.09;5014452;28;20207;-84
2022/07/23 10:47:10;;;;;;;3.58;1.90;;;;;;;24.61;41.89;101099.22;5014436;28;20664;-85
2022/07/23 10:49:37;;;;;;;2.83;1.90;;;;;;;24.55;41.82;101093.44;5014509;28;20198;-86
2022/07/23 10:52:22;;;;;;;2.28;1.50;;;;;;;24.50;41.56;101092.28;5014922;28;20215;-86
2022/07/23 10:54:50;;;;;;;2.20;1.77;;;;;;;24.47;41.71;101089.91;5013281;28;20657;-85
2022/07/23 10:57:19;;;;;;;2.35;1.70;;;;;;;24.45;42.09;101084.66;5010427;28;20274;-85
2022/07/23 11:00:21;;;;;;;2.70;1.80;;;;;;;24.45;42.07;101081.94;5014247;28;20539;-85
2022/07/23 11:02:49;;;;;;;4.65;1.73;;;;;;;24.50;42.20;101081.41;5014318;28;20282;-86
2022/07/23 11:05:18;;;;;;;3.40;1.80;;;;;;;24.58;42.52;101090.38;5014019;28;20300;-85
2022/07/23 11:08:16;;;;;;;3.30;2.00;;;;;;;24.63;41.60;101081.66;4994207;28;20714;-85
2022/07/23 11:10:45;;;;;;;2.55;1.58;;;;;;;24.68;41.60;101086.59;4994327;28;20202;-85
2022/07/23 11:13:41;;;;;;;3.45;1.70;;;;;;;24.74;41.45;101083.97;4994783;28;20265;-85
2022/07/23 11:16:24;;;;;;;1.85;1.40;;;;;;;24.73;41.06;101073.25;4998474;28;20309;-85
2022/07/23 11:19:10;;;;;;;2.58;1.30;;;;;;;24.79;41.22;101078.84;5013531;28;20225;-85
2022/07/23 11:21:53;;;;;;;1.92;1.50;;;;;;;24.80;40.86;101077.84;5013806;28;20198;-84
2022/07/23 11:24:21;;;;;;;1.70;1.40;;;;;;;24.80;41.04;101077.84;5013459;28;20191;-85
2022/07/23 11:26:52;;;;;;;1.65;1.30;;;;;;;24.86;40.89;101077.13;5013431;28;20771;-86
2022/07/23 11:29:51;;;;;;;3.25;1.60;;;;;;;24.94;41.19;101062.63;5013054;28;20203;-85